Anthony, Idaho
Current Conditions -  °F | °C
As of 8:53 PM on Thursday 27 Nov 2014 (Local Time) from KRXE Reporting Station
Few Clouds Few Clouds  
Wind Chill: 43°   Ceiling: Unl
Heat Index: 48°   Visibility: 10mi
Dew Point: 26°   Wind: 12mph
Humidity: 42%   Direction: 180°S
Pressure: 30.05"   Gusts: 22mph
Location:  44.2887°N, 111.507°W
Report Text: KRXE 280353Z AUTO 18010G19KT 10SM FEW120 09/M03 A3005 RMK AO2 SLP179 T00891033
Loading
Personal Weather Stations






























Interactive Weather Map New forecast layout! Learn more

10-Day Weather Forecast

Advertisements
Track Severe Weather on mobile